sensor_id;sensor_type;location;lat;lon;timestamp;P1;durP1;ratioP1;P2;durP2;ratioP2
48627;SDS011;34424;52.234;6.500;2023-10-08T00:00:20;23.3;;;8.3;;
48627;SDS011;34424;52.234;6.500;2023-10-08T00:05:20;21.8;;;8.1;;
48627;SDS011;34424;52.234;6.500;2023-10-08T00:10:20;19.1;;;7.6;;
48627;SDS011;34424;52.234;6.500;2023-10-08T00:15:20;19.6;;;8.1;;
48627;SDS011;34424;52.234;6.500;2023-10-08T00:20:20;22.1;;;8.5;;
48627;SDS011;34424;52.234;6.500;2023-10-08T00:25:21;19.6;;;8.4;;
48627;SDS011;34424;52.234;6.500;2023-10-08T00:30:21;18.7;;;8.2;;
48627;SDS011;34424;52.234;6.500;2023-10-08T00:35:21;26.1;;;8.9;;
48627;SDS011;34424;52.234;6.500;2023-10-08T00:40:21;24.5;;;8.2;;
48627;SDS011;34424;52.234;6.500;2023-10-08T00:45:21;20.1;;;8.4;;
48627;SDS011;34424;52.234;6.500;2023-10-08T00:50:21;22.3;;;8.7;;
48627;SDS011;34424;52.234;6.500;2023-10-08T00:55:21;20.7;;;8.8;;
48627;SDS011;34424;52.234;6.500;2023-10-08T01:00:21;24.1;;;8.2;;
48627;SDS011;34424;52.234;6.500;2023-10-08T01:05:21;24.2;;;9.4;;
48627;SDS011;34424;52.234;6.500;2023-10-08T01:10:21;22.5;;;9.1;;
48627;SDS011;34424;52.234;6.500;2023-10-08T01:15:21;23.8;;;9.4;;
48627;SDS011;34424;52.234;6.500;2023-10-08T01:20:21;21.7;;;9;;
48627;SDS011;34424;52.234;6.500;2023-10-08T01:25:21;17;;;8.7;;
48627;SDS011;34424;52.234;6.500;2023-10-08T01:30:21;20.7;;;9.5;;
48627;SDS011;34424;52.234;6.500;2023-10-08T01:35:21;18.1;;;9.2;;
48627;SDS011;34424;52.234;6.500;2023-10-08T01:40:21;22.8;;;10.1;;
48627;SDS011;34424;52.234;6.500;2023-10-08T01:45:22;22;;;10.4;;
48627;SDS011;34424;52.234;6.500;2023-10-08T01:50:22;27.7;;;10.6;;
48627;SDS011;34424;52.234;6.500;2023-10-08T01:55:22;21.5;;;10.8;;
48627;SDS011;34424;52.234;6.500;2023-10-08T02:00:22;23.8;;;11.1;;
48627;SDS011;34424;52.234;6.500;2023-10-08T02:05:22;10.9;;;6.5;;
48627;SDS011;34424;52.234;6.500;2023-10-08T02:10:22;5.7;;;4.6;;
48627;SDS011;34424;52.234;6.500;2023-10-08T02:15:22;6.2;;;4.5;;
48627;SDS011;34424;52.234;6.500;2023-10-08T02:20:22;5.8;;;5;;
48627;SDS011;34424;52.234;6.500;2023-10-08T02:25:22;7.3;;;4.8;;
48627;SDS011;34424;52.234;6.500;2023-10-08T02:30:22;4.1;;;3.5;;
48627;SDS011;34424;52.234;6.500;2023-10-08T02:35:22;5.2;;;3.5;;
48627;SDS011;34424;52.234;6.500;2023-10-08T02:40:21;4.5;;;3.3;;
48627;SDS011;34424;52.234;6.500;2023-10-08T02:45:21;4.4;;;2.9;;
48627;SDS011;34424;52.234;6.500;2023-10-08T02:50:21;5.9;;;3.2;;
48627;SDS011;34424;52.234;6.500;2023-10-08T02:55:21;3.9;;;2.9;;
48627;SDS011;34424;52.234;6.500;2023-10-08T03:00:21;5;;;2.9;;
48627;SDS011;34424;52.234;6.500;2023-10-08T03:05:21;5.6;;;3.1;;
48627;SDS011;34424;52.234;6.500;2023-10-08T03:10:21;4.1;;;3;;
48627;SDS011;34424;52.234;6.500;2023-10-08T03:15:21;4.2;;;2.5;;
48627;SDS011;34424;52.234;6.500;2023-10-08T03:20:21;6.5;;;3.1;;
48627;SDS011;34424;52.234;6.500;2023-10-08T03:25:21;4;;;2.7;;
48627;SDS011;34424;52.234;6.500;2023-10-08T03:30:20;3.9;;;2.5;;
48627;SDS011;34424;52.234;6.500;2023-10-08T03:35:20;3.2;;;2.1;;
48627;SDS011;34424;52.234;6.500;2023-10-08T03:40:20;4.1;;;2.8;;
48627;SDS011;34424;52.234;6.500;2023-10-08T03:45:20;3.5;;;2.7;;
48627;SDS011;34424;52.234;6.500;2023-10-08T03:50:20;3.2;;;2.8;;
48627;SDS011;34424;52.234;6.500;2023-10-08T03:55:20;3;;;2.3;;
48627;SDS011;34424;52.234;6.500;2023-10-08T04:00:20;3.7;;;2.6;;
48627;SDS011;34424;52.234;6.500;2023-10-08T04:05:20;3.5;;;2.8;;
48627;SDS011;34424;52.234;6.500;2023-10-08T04:10:20;3.4;;;2.4;;
48627;SDS011;34424;52.234;6.500;2023-10-08T04:15:19;3.7;;;2.7;;
48627;SDS011;34424;52.234;6.500;2023-10-08T04:20:19;4.5;;;2.8;;
48627;SDS011;34424;52.234;6.500;2023-10-08T04:25:19;2.7;;;2.4;;
48627;SDS011;34424;52.234;6.500;2023-10-08T04:30:19;3.8;;;3;;
48627;SDS011;34424;52.234;6.500;2023-10-08T04:35:19;4;;;2.9;;
48627;SDS011;34424;52.234;6.500;2023-10-08T04:40:19;3.9;;;3.2;;
48627;SDS011;34424;52.234;6.500;2023-10-08T04:45:19;4.5;;;3.3;;
48627;SDS011;34424;52.234;6.500;2023-10-08T04:50:19;3.3;;;3;;
48627;SDS011;34424;52.234;6.500;2023-10-08T04:55:19;3.9;;;3.4;;
48627;SDS011;34424;52.234;6.500;2023-10-08T05:00:18;3.8;;;3;;
48627;SDS011;34424;52.234;6.500;2023-10-08T05:05:18;5.6;;;4.2;;
48627;SDS011;34424;52.234;6.500;2023-10-08T05:10:18;6;;;4;;
48627;SDS011;34424;52.234;6.500;2023-10-08T05:15:18;6.1;;;4.6;;
48627;SDS011;34424;52.234;6.500;2023-10-08T05:20:18;7.2;;;5;;
48627;SDS011;34424;52.234;6.500;2023-10-08T05:25:18;6.3;;;4.9;;
48627;SDS011;34424;52.234;6.500;2023-10-08T05:30:18;5.8;;;4.4;;
48627;SDS011;34424;52.234;6.500;2023-10-08T05:35:18;6.6;;;4.9;;
48627;SDS011;34424;52.234;6.500;2023-10-08T05:40:17;5.8;;;4.3;;
48627;SDS011;34424;52.234;6.500;2023-10-08T05:45:17;6.3;;;4.3;;
48627;SDS011;34424;52.234;6.500;2023-10-08T05:50:17;5.7;;;4.1;;
48627;SDS011;34424;52.234;6.500;2023-10-08T05:55:17;5.8;;;4.5;;
48627;SDS011;34424;52.234;6.500;2023-10-08T06:00:17;6.1;;;4.8;;
48627;SDS011;34424;52.234;6.500;2023-10-08T06:05:17;5.9;;;4.6;;
48627;SDS011;34424;52.234;6.500;2023-10-08T06:10:17;6.7;;;4.3;;
48627;SDS011;34424;52.234;6.500;2023-10-08T06:15:17;6.2;;;4.8;;
48627;SDS011;34424;52.234;6.500;2023-10-08T06:20:16;6.3;;;4.8;;
48627;SDS011;34424;52.234;6.500;2023-10-08T06:25:16;6;;;4.4;;
48627;SDS011;34424;52.234;6.500;2023-10-08T06:30:16;5.3;;;4;;
48627;SDS011;34424;52.234;6.500;2023-10-08T06:35:16;6;;;4.6;;
48627;SDS011;34424;52.234;6.500;2023-10-08T06:40:16;6.9;;;4.2;;
48627;SDS011;34424;52.234;6.500;2023-10-08T06:45:16;5;;;3.9;;
48627;SDS011;34424;52.234;6.500;2023-10-08T06:50:16;5.2;;;4.2;;
48627;SDS011;34424;52.234;6.500;2023-10-08T06:55:16;7.8;;;4.7;;
48627;SDS011;34424;52.234;6.500;2023-10-08T07:00:16;6.6;;;4.2;;
48627;SDS011;34424;52.234;6.500;2023-10-08T07:05:15;7.2;;;4.5;;
48627;SDS011;34424;52.234;6.500;2023-10-08T07:10:15;5.7;;;4.8;;
48627;SDS011;34424;52.234;6.500;2023-10-08T07:15:15;6.9;;;4.9;;
48627;SDS011;34424;52.234;6.500;2023-10-08T07:20:15;7.1;;;5.1;;
48627;SDS011;34424;52.234;6.500;2023-10-08T07:25:15;8.2;;;5.3;;
48627;SDS011;34424;52.234;6.500;2023-10-08T07:30:15;5.6;;;4.3;;
48627;SDS011;34424;52.234;6.500;2023-10-08T07:35:14;8.2;;;4.6;;
48627;SDS011;34424;52.234;6.500;2023-10-08T07:40:14;7.8;;;4.8;;
48627;SDS011;34424;52.234;6.500;2023-10-08T07:45:14;7.7;;;4.3;;
48627;SDS011;34424;52.234;6.500;2023-10-08T07:50:14;5.2;;;3.5;;
48627;SDS011;34424;52.234;6.500;2023-10-08T07:55:14;5.5;;;3.8;;
48627;SDS011;34424;52.234;6.500;2023-10-08T08:00:15;5.1;;;3.6;;
48627;SDS011;34424;52.234;6.500;2023-10-08T08:05:14;5.3;;;3.4;;
48627;SDS011;34424;52.234;6.500;2023-10-08T08:10:14;5.8;;;3.4;;
48627;SDS011;34424;52.234;6.500;2023-10-08T08:15:14;5.2;;;3.5;;
48627;SDS011;34424;52.234;6.500;2023-10-08T08:20:14;5.3;;;4.1;;
48627;SDS011;34424;52.234;6.500;2023-10-08T08:25:14;6.1;;;4;;
48627;SDS011;34424;52.234;6.500;2023-10-08T08:30:14;6.5;;;4;;
48627;SDS011;34424;52.234;6.500;2023-10-08T08:35:14;6.5;;;3.6;;
48627;SDS011;34424;52.234;6.500;2023-10-08T08:40:14;7;;;3.9;;
48627;SDS011;34424;52.234;6.500;2023-10-08T08:45:15;4.1;;;3.3;;
48627;SDS011;34424;52.234;6.500;2023-10-08T08:50:14;6.1;;;3.2;;
48627;SDS011;34424;52.234;6.500;2023-10-08T08:55:14;7.4;;;3.6;;
48627;SDS011;34424;52.234;6.500;2023-10-08T09:00:15;4.9;;;2.6;;
48627;SDS011;34424;52.234;6.500;2023-10-08T09:05:14;5.5;;;3;;
48627;SDS011;34424;52.234;6.500;2023-10-08T09:10:14;5.5;;;3.3;;
48627;SDS011;34424;52.234;6.500;2023-10-08T09:15:14;5.9;;;4;;
48627;SDS011;34424;52.234;6.500;2023-10-08T09:20:14;4.8;;;3.4;;
48627;SDS011;34424;52.234;6.500;2023-10-08T09:25:14;5.6;;;3.5;;
48627;SDS011;34424;52.234;6.500;2023-10-08T09:30:15;7.3;;;4.3;;
48627;SDS011;34424;52.234;6.500;2023-10-08T09:35:15;5.3;;;3.2;;
48627;SDS011;34424;52.234;6.500;2023-10-08T09:40:15;4.9;;;2.3;;
48627;SDS011;34424;52.234;6.500;2023-10-08T09:45:15;5.4;;;2.2;;
48627;SDS011;34424;52.234;6.500;2023-10-08T09:50:15;4.7;;;1.6;;
48627;SDS011;34424;52.234;6.500;2023-10-08T09:55:17;3.4;;;1.5;;
48627;SDS011;34424;52.234;6.500;2023-10-08T10:00:16;4.6;;;1.5;;
48627;SDS011;34424;52.234;6.500;2023-10-08T10:05:16;4.4;;;1.7;;
48627;SDS011;34424;52.234;6.500;2023-10-08T10:15:17;3.4;;;1.7;;
48627;SDS011;34424;52.234;6.500;2023-10-08T10:20:17;4.7;;;1.8;;
48627;SDS011;34424;52.234;6.500;2023-10-08T10:25:33;3.2;;;1.5;;
48627;SDS011;34424;52.234;6.500;2023-10-08T10:30:17;3.6;;;1.5;;
48627;SDS011;34424;52.234;6.500;2023-10-08T10:35:18;3.4;;;1.8;;
48627;SDS011;34424;52.234;6.500;2023-10-08T10:40:19;4.2;;;1.6;;
48627;SDS011;34424;52.234;6.500;2023-10-08T10:45:18;3.7;;;1.8;;
48627;SDS011;34424;52.234;6.500;2023-10-08T10:50:18;3.7;;;1.4;;
48627;SDS011;34424;52.234;6.500;2023-10-08T10:55:19;3.3;;;1.3;;
48627;SDS011;34424;52.234;6.500;2023-10-08T11:00:19;3.1;;;1.6;;
48627;SDS011;34424;52.234;6.500;2023-10-08T11:05:19;9.9;;;1.8;;
48627;SDS011;34424;52.234;6.500;2023-10-08T11:10:19;3.9;;;1.4;;
48627;SDS011;34424;52.234;6.500;2023-10-08T11:15:19;3.5;;;1.4;;
48627;SDS011;34424;52.234;6.500;2023-10-08T11:20:29;2.4;;;1.4;;
48627;SDS011;34424;52.234;6.500;2023-10-08T11:25:24;3.9;;;1.4;;
48627;SDS011;34424;52.234;6.500;2023-10-08T11:30:20;3.6;;;1.3;;
48627;SDS011;34424;52.234;6.500;2023-10-08T11:35:20;5.3;;;1.6;;
48627;SDS011;34424;52.234;6.500;2023-10-08T11:40:25;3.9;;;1.6;;
48627;SDS011;34424;52.234;6.500;2023-10-08T11:45:21;2.2;;;1.3;;
48627;SDS011;34424;52.234;6.500;2023-10-08T11:50:21;3.6;;;1.5;;
48627;SDS011;34424;52.234;6.500;2023-10-08T11:55:21;4.1;;;1.4;;
48627;SDS011;34424;52.234;6.500;2023-10-08T12:00:21;4.5;;;1.7;;
48627;SDS011;34424;52.234;6.500;2023-10-08T12:05:22;4.3;;;1.8;;
48627;SDS011;34424;52.234;6.500;2023-10-08T12:10:22;4.9;;;2.2;;
48627;SDS011;34424;52.234;6.500;2023-10-08T12:15:22;6.6;;;2.2;;
48627;SDS011;34424;52.234;6.500;2023-10-08T12:20:22;4.4;;;2.3;;
48627;SDS011;34424;52.234;6.500;2023-10-08T12:25:23;4.9;;;1.8;;
48627;SDS011;34424;52.234;6.500;2023-10-08T12:30:23;4.5;;;1.9;;
48627;SDS011;34424;52.234;6.500;2023-10-08T12:35:23;4.2;;;1.9;;
48627;SDS011;34424;52.234;6.500;2023-10-08T12:40:23;3.1;;;1.7;;
48627;SDS011;34424;52.234;6.500;2023-10-08T12:45:24;3.9;;;1.8;;
48627;SDS011;34424;52.234;6.500;2023-10-08T12:50:24;4.7;;;1.8;;
48627;SDS011;34424;52.234;6.500;2023-10-08T12:55:24;4.4;;;1.8;;
48627;SDS011;34424;52.234;6.500;2023-10-08T13:00:27;3.2;;;1.4;;
48627;SDS011;34424;52.234;6.500;2023-10-08T13:05:24;3.8;;;1.7;;
48627;SDS011;34424;52.234;6.500;2023-10-08T13:10:25;2.8;;;1.6;;
48627;SDS011;34424;52.234;6.500;2023-10-08T13:15:25;3.6;;;1.6;;
48627;SDS011;34424;52.234;6.500;2023-10-08T13:20:25;3.3;;;1.3;;
48627;SDS011;34424;52.234;6.500;2023-10-08T13:25:25;1.9;;;1.4;;
48627;SDS011;34424;52.234;6.500;2023-10-08T13:30:25;3.7;;;2.3;;
48627;SDS011;34424;52.234;6.500;2023-10-08T13:35:25;4.5;;;1.9;;
48627;SDS011;34424;52.234;6.500;2023-10-08T13:40:25;3.3;;;1.3;;
48627;SDS011;34424;52.234;6.500;2023-10-08T13:45:25;3.6;;;1.4;;
48627;SDS011;34424;52.234;6.500;2023-10-08T13:50:26;3.3;;;1.4;;
48627;SDS011;34424;52.234;6.500;2023-10-08T13:55:26;3.5;;;1.3;;
48627;SDS011;34424;52.234;6.500;2023-10-08T14:00:26;4.1;;;1.7;;
48627;SDS011;34424;52.234;6.500;2023-10-08T14:05:26;2.4;;;1.4;;
48627;SDS011;34424;52.234;6.500;2023-10-08T14:10:26;3.1;;;1.6;;
48627;SDS011;34424;52.234;6.500;2023-10-08T14:15:26;3.9;;;1.9;;
48627;SDS011;34424;52.234;6.500;2023-10-08T14:20:26;3.2;;;1.5;;
48627;SDS011;34424;52.234;6.500;2023-10-08T14:25:26;4.1;;;1.5;;
48627;SDS011;34424;52.234;6.500;2023-10-08T14:30:26;3.2;;;1.5;;
48627;SDS011;34424;52.234;6.500;2023-10-08T14:35:26;3.4;;;1.4;;
48627;SDS011;34424;52.234;6.500;2023-10-08T14:40:26;2.9;;;1.6;;
48627;SDS011;34424;52.234;6.500;2023-10-08T14:45:27;4.8;;;1.6;;
48627;SDS011;34424;52.234;6.500;2023-10-08T14:50:27;3.8;;;1.4;;
48627;SDS011;34424;52.234;6.500;2023-10-08T14:55:27;3;;;1.3;;
48627;SDS011;34424;52.234;6.500;2023-10-08T15:00:27;2.6;;;1.5;;
48627;SDS011;34424;52.234;6.500;2023-10-08T15:05:27;2.8;;;1.4;;
48627;SDS011;34424;52.234;6.500;2023-10-08T15:10:27;4.1;;;1.7;;
48627;SDS011;34424;52.234;6.500;2023-10-08T15:15:27;2.8;;;1.6;;
48627;SDS011;34424;52.234;6.500;2023-10-08T15:20:27;3.3;;;1.6;;
48627;SDS011;34424;52.234;6.500;2023-10-08T15:25:27;4.1;;;1.7;;
48627;SDS011;34424;52.234;6.500;2023-10-08T15:30:27;6.4;;;1.6;;
48627;SDS011;34424;52.234;6.500;2023-10-08T15:35:27;2.9;;;1.4;;
48627;SDS011;34424;52.234;6.500;2023-10-08T15:40:27;4;;;1.6;;
48627;SDS011;34424;52.234;6.500;2023-10-08T15:45:27;4.4;;;1.7;;
48627;SDS011;34424;52.234;6.500;2023-10-08T15:50:27;3.3;;;1.5;;
48627;SDS011;34424;52.234;6.500;2023-10-08T15:55:27;6.5;;;2.2;;
48627;SDS011;34424;52.234;6.500;2023-10-08T16:00:27;4.5;;;2.5;;
48627;SDS011;34424;52.234;6.500;2023-10-08T16:05:27;5.9;;;2.4;;
48627;SDS011;34424;52.234;6.500;2023-10-08T16:10:27;4.6;;;1.9;;
48627;SDS011;34424;52.234;6.500;2023-10-08T16:15:27;4.5;;;2.1;;
48627;SDS011;34424;52.234;6.500;2023-10-08T16:20:27;4.3;;;2.3;;
48627;SDS011;34424;52.234;6.500;2023-10-08T16:25:27;4.2;;;2.5;;
48627;SDS011;34424;52.234;6.500;2023-10-08T16:30:27;6.6;;;2.1;;
48627;SDS011;34424;52.234;6.500;2023-10-08T16:35:27;5;;;2.4;;
48627;SDS011;34424;52.234;6.500;2023-10-08T16:40:27;5.1;;;2.2;;
48627;SDS011;34424;52.234;6.500;2023-10-08T16:45:27;4.3;;;2.3;;
48627;SDS011;34424;52.234;6.500;2023-10-08T16:50:27;6.5;;;2.9;;
48627;SDS011;34424;52.234;6.500;2023-10-08T16:55:27;5.5;;;3;;
48627;SDS011;34424;52.234;6.500;2023-10-08T17:00:27;4.9;;;2.8;;
48627;SDS011;34424;52.234;6.500;2023-10-08T17:05:27;4.7;;;2.4;;
48627;SDS011;34424;52.234;6.500;2023-10-08T17:10:27;4.3;;;2.6;;
48627;SDS011;34424;52.234;6.500;2023-10-08T17:15:26;5.6;;;2.3;;
48627;SDS011;34424;52.234;6.500;2023-10-08T17:20:26;3.4;;;1.7;;
48627;SDS011;34424;52.234;6.500;2023-10-08T17:25:26;2.7;;;1.8;;
48627;SDS011;34424;52.234;6.500;2023-10-08T17:30:26;3.6;;;1.9;;
48627;SDS011;34424;52.234;6.500;2023-10-08T17:35:26;5.8;;;2.1;;
48627;SDS011;34424;52.234;6.500;2023-10-08T17:40:26;5;;;2.5;;
48627;SDS011;34424;52.234;6.500;2023-10-08T17:45:26;3.3;;;2.1;;
48627;SDS011;34424;52.234;6.500;2023-10-08T17:50:26;4.3;;;2.4;;
48627;SDS011;34424;52.234;6.500;2023-10-08T17:55:26;4.5;;;1.6;;
48627;SDS011;34424;52.234;6.500;2023-10-08T18:00:26;5.3;;;1.8;;
48627;SDS011;34424;52.234;6.500;2023-10-08T18:05:26;3.3;;;1.5;;
48627;SDS011;34424;52.234;6.500;2023-10-08T18:10:26;2.6;;;1.5;;
48627;SDS011;34424;52.234;6.500;2023-10-08T18:15:26;7.6;;;3.7;;
48627;SDS011;34424;52.234;6.500;2023-10-08T18:20:25;3.8;;;1.7;;
48627;SDS011;34424;52.234;6.500;2023-10-08T18:25:25;4.1;;;1.3;;
48627;SDS011;34424;52.234;6.500;2023-10-08T18:30:25;3.7;;;1.6;;
48627;SDS011;34424;52.234;6.500;2023-10-08T18:35:25;5.8;;;1.8;;
48627;SDS011;34424;52.234;6.500;2023-10-08T18:40:25;4.4;;;2;;
48627;SDS011;34424;52.234;6.500;2023-10-08T18:45:25;8.1;;;3.8;;
48627;SDS011;34424;52.234;6.500;2023-10-08T18:50:25;3.3;;;1.6;;
48627;SDS011;34424;52.234;6.500;2023-10-08T18:55:25;4.4;;;1.7;;
48627;SDS011;34424;52.234;6.500;2023-10-08T19:00:25;5.4;;;1.8;;
48627;SDS011;34424;52.234;6.500;2023-10-08T19:05:25;5.2;;;1.8;;
48627;SDS011;34424;52.234;6.500;2023-10-08T19:10:25;3.3;;;1.6;;
48627;SDS011;34424;52.234;6.500;2023-10-08T19:15:25;4.9;;;1.7;;
48627;SDS011;34424;52.234;6.500;2023-10-08T19:20:24;5.7;;;2.1;;
48627;SDS011;34424;52.234;6.500;2023-10-08T19:25:24;3.4;;;1.8;;
48627;SDS011;34424;52.234;6.500;2023-10-08T19:30:24;3.3;;;1.8;;
48627;SDS011;34424;52.234;6.500;2023-10-08T19:35:24;3.4;;;2.1;;
48627;SDS011;34424;52.234;6.500;2023-10-08T19:40:24;3.2;;;1.6;;
48627;SDS011;34424;52.234;6.500;2023-10-08T19:45:24;5.4;;;2;;
48627;SDS011;34424;52.234;6.500;2023-10-08T19:50:24;2.9;;;1.8;;
48627;SDS011;34424;52.234;6.500;2023-10-08T19:55:24;4.1;;;2.1;;
48627;SDS011;34424;52.234;6.500;2023-10-08T20:00:24;5.4;;;2.2;;
48627;SDS011;34424;52.234;6.500;2023-10-08T20:05:24;5;;;1.9;;
48627;SDS011;34424;52.234;6.500;2023-10-08T20:10:24;3.5;;;1.9;;
48627;SDS011;34424;52.234;6.500;2023-10-08T20:15:23;3.5;;;2.2;;
48627;SDS011;34424;52.234;6.500;2023-10-08T20:20:23;5;;;2.3;;
48627;SDS011;34424;52.234;6.500;2023-10-08T20:25:24;3.6;;;1.9;;
48627;SDS011;34424;52.234;6.500;2023-10-08T20:30:23;5.9;;;2.7;;
48627;SDS011;34424;52.234;6.500;2023-10-08T20:35:23;3.4;;;2.3;;
48627;SDS011;34424;52.234;6.500;2023-10-08T20:40:23;3.6;;;1.8;;
48627;SDS011;34424;52.234;6.500;2023-10-08T20:45:23;5.3;;;2.5;;
48627;SDS011;34424;52.234;6.500;2023-10-08T20:50:23;6.7;;;2.5;;
48627;SDS011;34424;52.234;6.500;2023-10-08T20:55:23;5;;;2.3;;
48627;SDS011;34424;52.234;6.500;2023-10-08T21:00:23;5.1;;;2.8;;
48627;SDS011;34424;52.234;6.500;2023-10-08T21:05:23;4.7;;;2.9;;
48627;SDS011;34424;52.234;6.500;2023-10-08T21:10:22;5.1;;;3.3;;
48627;SDS011;34424;52.234;6.500;2023-10-08T21:15:23;6.9;;;3.7;;
48627;SDS011;34424;52.234;6.500;2023-10-08T21:20:22;5.6;;;3.2;;
48627;SDS011;34424;52.234;6.500;2023-10-08T21:25:22;5.6;;;3.2;;
48627;SDS011;34424;52.234;6.500;2023-10-08T21:30:22;5.6;;;3.7;;
48627;SDS011;34424;52.234;6.500;2023-10-08T21:35:22;6.1;;;3.9;;
48627;SDS011;34424;52.234;6.500;2023-10-08T21:40:21;7.4;;;4.4;;
48627;SDS011;34424;52.234;6.500;2023-10-08T21:45:21;7.1;;;4.9;;
48627;SDS011;34424;52.234;6.500;2023-10-08T21:50:21;7.5;;;4.9;;
48627;SDS011;34424;52.234;6.500;2023-10-08T21:55:23;7.5;;;5.1;;
48627;SDS011;34424;52.234;6.500;2023-10-08T22:00:21;7.7;;;4.9;;
48627;SDS011;34424;52.234;6.500;2023-10-08T22:05:21;7.1;;;5.3;;
48627;SDS011;34424;52.234;6.500;2023-10-08T22:10:20;9.7;;;6.1;;
48627;SDS011;34424;52.234;6.500;2023-10-08T22:15:20;7.9;;;5.9;;
48627;SDS011;34424;52.234;6.500;2023-10-08T22:20:20;9.8;;;6;;
48627;SDS011;34424;52.234;6.500;2023-10-08T22:25:20;8.1;;;6.3;;
48627;SDS011;34424;52.234;6.500;2023-10-08T22:30:20;8.5;;;6.3;;
48627;SDS011;34424;52.234;6.500;2023-10-08T22:35:20;11.2;;;7.4;;
48627;SDS011;34424;52.234;6.500;2023-10-08T22:40:19;12.1;;;8;;
48627;SDS011;34424;52.234;6.500;2023-10-08T22:45:19;10.6;;;7.3;;
48627;SDS011;34424;52.234;6.500;2023-10-08T22:50:19;11.9;;;8;;
48627;SDS011;34424;52.234;6.500;2023-10-08T22:55:19;14.3;;;8.8;;
48627;SDS011;34424;52.234;6.500;2023-10-08T23:00:19;14.3;;;9.6;;
48627;SDS011;34424;52.234;6.500;2023-10-08T23:05:18;13.1;;;9.4;;
48627;SDS011;34424;52.234;6.500;2023-10-08T23:10:18;14.2;;;10.3;;
48627;SDS011;34424;52.234;6.500;2023-10-08T23:15:18;12.6;;;10.1;;
48627;SDS011;34424;52.234;6.500;2023-10-08T23:20:18;14.3;;;10.4;;
48627;SDS011;34424;52.234;6.500;2023-10-08T23:25:18;15;;;9.9;;
48627;SDS011;34424;52.234;6.500;2023-10-08T23:30:18;17.3;;;11;;
48627;SDS011;34424;52.234;6.500;2023-10-08T23:35:17;16.7;;;11.8;;
48627;SDS011;34424;52.234;6.500;2023-10-08T23:40:17;15.8;;;12.2;;
48627;SDS011;34424;52.234;6.500;2023-10-08T23:45:17;20.4;;;13.5;;
48627;SDS011;34424;52.234;6.500;2023-10-08T23:50:17;25.1;;;16;;
48627;SDS011;34424;52.234;6.500;2023-10-08T23:55:17;25;;;15.7;;
